Time;durP1;ratioP1;P1;durP2;ratioP2;P2;SDS_P1;SDS_P2;PMS_P1;PMS_P2;Temp;Humidity;BMP_temperature;BMP_pressure;BME280_temperature;BME280_humidity;BME280_pressure;Samples;Min_cycle;Max_cycle;Signal;HPM_P1;HPM_P2
2022/11/07 00:01:30;;;;;;;13.07;7.60;;;10.90;99.90;;;;;;5047406;28;20059;-80
2022/11/07 00:03:56;;;;;;;10.30;6.97;;;10.90;99.90;;;;;;5058642;28;20509;-78
2022/11/07 00:06:22;;;;;;;10.68;6.55;;;10.80;99.90;;;;;;5039929;28;20467;-79
2022/11/07 00:08:48;;;;;;;11.07;6.65;;;10.90;99.90;;;;;;5025985;28;20128;-80
2022/11/07 00:11:14;;;;;;;11.35;6.75;;;10.90;99.90;;;;;;5045326;28;20093;-80
2022/11/07 00:13:40;;;;;;;9.85;6.28;;;10.90;99.90;;;;;;5041139;28;20416;-80
2022/11/07 00:16:08;;;;;;;12.85;6.72;;;10.90;99.90;;;;;;5041455;28;20042;-80
2022/11/07 00:18:35;;;;;;;11.77;7.00;;;10.90;99.90;;;;;;5067217;28;20035;-80
2022/11/07 00:21:06;;;;;;;13.07;7.45;;;11.00;99.90;;;;;;5059534;28;20033;-81
2022/11/07 00:23:32;;;;;;;19.48;9.00;;;11.00;99.90;;;;;;5062096;28;20505;-79
2022/11/07 00:26:06;;;;;;;12.05;7.65;;;11.00;99.90;;;;;;5060857;28;20056;-79
2022/11/07 00:28:33;;;;;;;16.27;7.80;;;11.10;99.90;;;;;;5059328;28;20044;-79
2022/11/07 00:30:59;;;;;;;18.48;7.97;;;11.00;99.90;;;;;;5056776;28;20037;-80
2022/11/07 00:33:25;;;;;;;14.10;7.30;;;11.10;99.90;;;;;;5039958;28;20119;-79
2022/11/07 00:35:50;;;;;;;13.43;7.05;;;11.10;99.90;;;;;;5041070;28;20066;-78
2022/11/07 00:38:16;;;;;;;15.23;7.43;;;11.10;99.90;;;;;;5015110;28;20036;-79
2022/11/07 00:40:42;;;;;;;12.60;6.97;;;11.10;99.90;;;;;;5059222;28;20494;-79
2022/11/07 00:43:07;;;;;;;13.98;7.35;;;11.10;99.90;;;;;;5022351;28;20040;-80
2022/11/07 00:45:33;;;;;;;14.07;7.18;;;11.20;99.90;;;;;;5038113;28;20064;-79
2022/11/07 00:47:59;;;;;;;14.52;7.53;;;11.10;99.90;;;;;;5050447;28;20036;-80
2022/11/07 00:50:24;;;;;;;17.20;8.20;;;11.10;99.90;;;;;;5051149;28;20072;-80
2022/11/07 00:52:50;;;;;;;13.05;7.47;;;11.20;99.90;;;;;;5026417;28;20037;-80
2022/11/07 00:55:16;;;;;;;16.63;7.53;;;11.20;99.90;;;;;;5038358;28;20124;-78
2022/11/07 00:57:41;;;;;;;14.73;7.93;;;11.10;99.90;;;;;;5022663;28;20047;-80
2022/11/07 01:00:08;;;;;;;15.82;7.90;;;11.20;99.90;;;;;;5044104;28;20056;-79
2022/11/07 01:02:33;;;;;;;14.75;7.22;;;11.10;99.90;;;;;;5019656;28;20484;-79
2022/11/07 01:05:11;;;;;;;11.85;7.35;;;11.20;99.90;;;;;;5006737;28;20052;-80
2022/11/07 01:07:38;;;;;;;17.15;8.70;;;11.20;99.90;;;;;;5025128;28;20123;-79
2022/11/07 01:10:05;;;;;;;19.50;8.18;;;11.10;99.90;;;;;;5056460;28;20036;-80
2022/11/07 01:12:34;;;;;;;14.40;6.30;;;11.10;99.90;;;;;;5059208;28;20306;-80
2022/11/07 01:15:01;;;;;;;12.20;7.00;;;11.20;99.90;;;;;;5052972;28;20041;-81
2022/11/07 01:17:27;;;;;;;17.58;7.32;;;11.20;99.90;;;;;;5040386;28;20039;-80
2022/11/07 01:19:53;;;;;;;11.13;6.97;;;11.20;99.90;;;;;;5041208;28;20488;-78
2022/11/07 01:22:19;;;;;;;16.13;6.60;;;11.20;99.90;;;;;;5029192;28;20284;-77
2022/11/07 01:24:46;;;;;;;12.02;6.10;;;11.20;99.90;;;;;;5024096;28;20504;-80
2022/11/07 01:27:11;;;;;;;13.52;6.60;;;11.20;99.90;;;;;;5025821;28;20094;-79
2022/11/07 01:29:38;;;;;;;18.95;7.20;;;11.20;99.90;;;;;;5024376;28;20528;-80
2022/11/07 01:32:04;;;;;;;14.95;6.60;;;11.20;99.90;;;;;;5039479;28;20041;-80
2022/11/07 01:34:29;;;;;;;15.43;6.68;;;11.20;99.90;;;;;;5017054;28;20135;-81
2022/11/07 01:36:55;;;;;;;12.02;6.80;;;11.30;99.90;;;;;;5020280;28;20044;-80
2022/11/07 01:39:21;;;;;;;13.38;6.45;;;11.30;99.90;;;;;;5037744;28;20047;-79
2022/11/07 01:41:46;;;;;;;16.15;5.72;;;11.30;99.90;;;;;;5039033;28;20074;-81
2022/11/07 01:44:12;;;;;;;14.63;5.75;;;11.30;99.90;;;;;;5041492;28;20032;-79
2022/11/07 01:46:41;;;;;;;15.40;6.20;;;11.30;99.90;;;;;;5037338;28;20062;-80
2022/11/07 01:49:19;;;;;;;15.07;6.43;;;11.30;99.90;;;;;;5054090;28;20127;-81
2022/11/07 01:51:49;;;;;;;16.88;6.28;;;11.30;99.90;;;;;;5039414;28;20070;-81
2022/11/07 01:54:20;;;;;;;12.48;5.43;;;11.20;99.90;;;;;;5054493;28;20094;-80
2022/11/07 01:59:20;;;;;;;15.90;5.22;;;11.20;99.90;;;;;;5056536;28;20052;-59
2022/11/07 02:01:46;;;;;;;16.05;5.25;;;11.20;99.90;;;;;;5057361;28;20423;-59
2022/11/07 02:04:12;;;;;;;17.17;5.07;;;11.20;99.90;;;;;;5056722;28;20069;-60
2022/11/07 02:06:44;;;;;;;16.05;5.15;;;11.10;99.90;;;;;;5042330;28;20494;-59
2022/11/07 02:09:11;;;;;;;14.18;6.22;;;11.20;99.90;;;;;;5045688;28;20029;-60
2022/11/07 02:11:37;;;;;;;17.30;6.57;;;11.10;99.90;;;;;;5059207;28;20054;-59
2022/11/07 02:14:03;;;;;;;16.42;6.22;;;11.20;99.90;;;;;;5060735;28;20046;-59
2022/11/07 02:16:31;;;;;;;12.60;5.70;;;11.20;99.90;;;;;;5056462;28;21425;-59
2022/11/07 02:18:58;;;;;;;12.35;4.82;;;11.20;99.90;;;;;;5048988;28;20049;-60
2022/11/07 02:21:47;;;;;;;17.83;5.65;;;11.20;99.90;;;;;;5054821;28;20055;-60
2022/11/07 02:24:34;;;;;;;11.43;4.68;;;11.30;99.90;;;;;;5059300;28;20033;-60
2022/11/07 02:27:05;;;;;;;9.57;4.82;;;11.20;99.90;;;;;;5046299;28;20613;-60
2022/11/07 02:29:33;;;;;;;9.05;4.20;;;11.20;99.90;;;;;;5064286;28;20037;-60
2022/11/07 02:32:00;;;;;;;11.30;4.20;;;11.20;99.90;;;;;;5047348;28;20507;-61
2022/11/07 02:34:26;;;;;;;12.18;4.15;;;11.20;99.90;;;;;;5052828;28;20213;-60
2022/11/07 02:36:52;;;;;;;11.85;4.72;;;11.20;99.90;;;;;;5044866;28;20182;-61
2022/11/07 02:39:17;;;;;;;10.77;4.53;;;11.20;99.90;;;;;;5063374;28;20565;-60
2022/11/07 02:41:44;;;;;;;13.35;4.47;;;11.20;99.90;;;;;;5044777;28;20041;-60
2022/11/07 02:44:11;;;;;;;9.75;3.78;;;11.20;99.90;;;;;;5057099;28;20074;-59
2022/11/07 02:46:38;;;;;;;9.60;4.03;;;11.20;99.90;;;;;;5061583;28;20133;-58
2022/11/07 02:49:05;;;;;;;10.70;3.70;;;11.20;99.90;;;;;;5042253;28;20511;-59
2022/11/07 02:51:31;;;;;;;12.48;3.40;;;11.20;99.90;;;;;;5055986;28;20037;-61
2022/11/07 02:53:57;;;;;;;10.65;3.20;;;11.20;99.90;;;;;;5043745;28;20041;-60
2022/11/07 02:56:23;;;;;;;8.90;3.88;;;11.20;99.90;;;;;;5062026;28;20397;-59
2022/11/07 02:58:51;;;;;;;8.20;3.75;;;11.20;99.90;;;;;;5049507;28;20048;-57
2022/11/07 03:01:17;;;;;;;15.48;5.35;;;11.20;99.90;;;;;;5056543;28;20053;-59
2022/11/07 03:03:46;;;;;;;12.60;4.28;;;11.20;99.90;;;;;;5048972;28;20090;-59
2022/11/07 03:06:16;;;;;;;14.70;4.57;;;11.20;99.90;;;;;;5058758;28;20044;-60
2022/11/07 03:08:42;;;;;;;16.83;4.60;;;11.20;99.90;;;;;;5043007;28;20403;-60
2022/11/07 03:11:08;;;;;;;13.38;4.20;;;11.30;99.90;;;;;;5055537;28;20044;-58
2022/11/07 03:13:35;;;;;;;11.45;3.75;;;11.20;99.90;;;;;;5053187;28;20143;-59
2022/11/07 03:16:08;;;;;;;18.00;4.18;;;11.30;99.90;;;;;;5036486;28;20370;-60
2022/11/07 03:18:34;;;;;;;13.52;3.97;;;11.30;99.90;;;;;;5061336;28;20047;-60
2022/11/07 03:21:00;;;;;;;8.40;3.15;;;11.30;99.90;;;;;;5037570;28;20045;-60
2022/11/07 03:23:26;;;;;;;12.27;3.40;;;11.30;99.90;;;;;;5058879;28;20036;-60
2022/11/07 03:25:52;;;;;;;13.88;3.80;;;11.20;99.90;;;;;;5042780;28;20032;-59
2022/11/07 03:28:17;;;;;;;13.32;4.00;;;11.20;99.90;;;;;;5052632;28;20036;-60
2022/11/07 03:30:43;;;;;;;13.25;4.20;;;11.30;99.90;;;;;;5057897;28;20075;-60
2022/11/07 03:33:09;;;;;;;11.88;3.85;;;11.30;99.90;;;;;;5066154;28;20032;-59
2022/11/07 03:35:35;;;;;;;11.57;3.72;;;11.30;99.90;;;;;;5067573;28;20040;-60
2022/11/07 03:38:00;;;;;;;11.05;2.85;;;11.20;99.90;;;;;;5066209;28;20403;-60
2022/11/07 03:40:26;;;;;;;8.55;3.20;;;11.30;99.90;;;;;;5063338;28;20399;-60
2022/11/07 03:42:52;;;;;;;13.90;3.35;;;11.20;99.90;;;;;;5058480;28;20041;-60
2022/11/07 03:45:18;;;;;;;11.90;3.22;;;11.20;99.90;;;;;;5058948;28;20162;-58
2022/11/07 03:47:45;;;;;;;12.38;3.15;;;11.20;99.90;;;;;;5056789;28;20029;-56
2022/11/07 03:50:17;;;;;;;12.57;3.72;;;11.20;99.90;;;;;;5041940;28;20043;-56
2022/11/07 03:52:43;;;;;;;12.27;3.20;;;11.20;99.90;;;;;;5042435;28;20063;-57
2022/11/07 03:55:10;;;;;;;13.43;3.20;;;11.20;99.90;;;;;;5045393;28;20051;-59
2022/11/07 03:57:36;;;;;;;9.65;3.28;;;11.20;99.90;;;;;;5045064;28;20041;-59
2022/11/07 04:00:03;;;;;;;14.20;2.97;;;11.20;99.90;;;;;;5042206;28;20037;-61
2022/11/07 04:02:29;;;;;;;16.17;3.90;;;11.20;99.90;;;;;;5037973;28;20076;-60
2022/11/07 04:04:55;;;;;;;17.88;4.30;;;11.20;99.90;;;;;;5043771;28;20546;-58
2022/11/07 04:07:20;;;;;;;16.80;4.00;;;11.20;99.90;;;;;;5059369;28;20399;-61
2022/11/07 04:09:46;;;;;;;13.65;3.50;;;11.20;99.90;;;;;;5052948;28;20041;-59
2022/11/07 04:17:40;;;;;;;20.60;5.07;;;11.20;99.90;;;;;;5054114;28;20587;-59
2022/11/07 04:20:06;;;;;;;12.18;4.30;;;11.20;99.90;;;;;;5043853;28;20158;-60
2022/11/07 04:22:32;;;;;;;11.27;3.95;;;11.20;99.90;;;;;;5029829;28;20048;-60
2022/11/07 04:24:58;;;;;;;16.77;4.05;;;11.20;99.90;;;;;;5045280;28;20498;-59
2022/11/07 04:27:42;;;;;;;11.98;4.20;;;11.30;99.90;;;;;;5055930;28;20154;-60
2022/11/07 04:30:27;;;;;;;17.73;5.47;;;11.30;99.90;;;;;;5045326;28;20032;-59
2022/11/07 04:32:54;;;;;;;12.05;4.05;;;11.20;99.90;;;;;;5054135;28;20073;-60
2022/11/07 04:35:21;;;;;;;14.93;4.72;;;11.30;99.90;;;;;;5035783;28;20390;-59
2022/11/07 04:37:47;;;;;;;12.40;4.10;;;11.30;99.90;;;;;;5043167;28;20372;-57
2022/11/07 04:40:14;;;;;;;16.52;4.53;;;11.30;99.90;;;;;;5038905;28;20044;-59
2022/11/07 04:42:40;;;;;;;13.15;3.95;;;11.30;99.90;;;;;;5054482;28;20105;-59
2022/11/07 04:45:06;;;;;;;10.55;3.47;;;11.30;99.90;;;;;;5054233;28;20044;-58
2022/11/07 04:47:32;;;;;;;15.05;5.22;;;11.30;99.90;;;;;;5063684;28;20191;-59
2022/11/07 04:49:58;;;;;;;19.83;4.63;;;11.30;99.90;;;;;;5044709;28;20251;-57
2022/11/07 04:52:24;;;;;;;12.13;4.28;;;11.30;99.90;;;;;;5052728;28;20040;-57
2022/11/07 04:54:49;;;;;;;13.80;4.18;;;11.30;99.90;;;;;;5058281;28;20036;-59
2022/11/07 04:57:15;;;;;;;15.50;4.07;;;11.30;99.90;;;;;;5037810;28;20502;-58
2022/11/07 04:59:41;;;;;;;14.18;4.20;;;11.30;99.90;;;;;;5047835;28;20058;-58
2022/11/07 05:02:11;;;;;;;15.18;3.50;;;11.30;99.90;;;;;;5039710;28;20536;-58
2022/11/07 05:04:38;;;;;;;19.50;4.00;;;11.20;99.90;;;;;;5056259;28;20033;-60
2022/11/07 05:07:04;;;;;;;22.35;5.13;;;11.20;99.90;;;;;;5043244;28;20040;-59
2022/11/07 05:09:29;;;;;;;14.35;3.90;;;11.20;99.90;;;;;;5042676;28;20055;-58
2022/11/07 05:11:55;;;;;;;11.40;3.40;;;11.20;99.90;;;;;;5043820;28;20036;-58
2022/11/07 05:14:21;;;;;;;12.32;3.72;;;11.10;99.90;;;;;;5052616;28;20059;-58
2022/11/07 05:16:49;;;;;;;10.98;3.20;;;11.10;99.90;;;;;;5059108;28;20036;-58
2022/11/07 05:19:16;;;;;;;11.32;3.40;;;11.10;99.90;;;;;;5055436;28;20106;-59
2022/11/07 05:21:43;;;;;;;15.50;3.35;;;11.10;99.90;;;;;;5038215;28;20058;-59
2022/11/07 05:24:09;;;;;;;13.13;3.83;;;11.10;99.90;;;;;;5057857;28;20399;-59
2022/11/07 05:26:34;;;;;;;13.95;3.03;;;11.10;99.90;;;;;;5056949;28;20033;-59
2022/11/07 05:29:00;;;;;;;13.00;3.60;;;11.10;99.90;;;;;;5042248;28;20051;-57
2022/11/07 05:31:26;;;;;;;11.30;3.90;;;11.10;99.90;;;;;;5043773;28;20041;-59
2022/11/07 05:33:52;;;;;;;10.88;3.42;;;11.20;99.90;;;;;;5051288;28;20131;-59
2022/11/07 05:36:21;;;;;;;9.88;3.50;;;11.20;99.90;;;;;;5054933;28;20052;-58
2022/11/07 05:38:49;;;;;;;14.05;4.07;;;11.20;99.90;;;;;;5048618;28;20116;-59
2022/11/07 05:41:16;;;;;;;13.25;4.00;;;11.20;99.90;;;;;;5059785;28;20040;-58
2022/11/07 05:43:42;;;;;;;10.82;3.47;;;11.20;99.90;;;;;;5060106;28;20388;-57
2022/11/07 05:46:08;;;;;;;12.50;3.33;;;11.20;99.90;;;;;;5023141;28;20066;-59
2022/11/07 05:48:35;;;;;;;13.30;3.70;;;11.20;99.90;;;;;;5054163;28;20383;-59
2022/11/07 05:51:01;;;;;;;12.77;3.40;;;11.20;99.90;;;;;;5045908;28;20049;-58
2022/11/07 05:53:27;;;;;;;13.73;3.08;;;11.20;99.90;;;;;;5018239;28;20041;-59
2022/11/07 05:55:53;;;;;;;11.35;2.95;;;11.20;99.90;;;;;;5054765;28;20542;-58
2022/11/07 05:58:20;;;;;;;9.43;3.15;;;11.20;99.90;;;;;;5058143;28;20050;-59
2022/11/07 06:00:46;;;;;;;13.13;3.67;;;11.20;99.90;;;;;;5063020;28;20040;-60
2022/11/07 06:03:12;;;;;;;15.77;4.93;;;11.20;99.90;;;;;;5057401;28;20037;-59
2022/11/07 06:05:40;;;;;;;8.98;3.95;;;11.20;99.90;;;;;;5061913;28;20361;-59
2022/11/07 06:08:08;;;;;;;11.13;4.15;;;11.10;99.90;;;;;;5058209;28;20276;-57
2022/11/07 06:10:36;;;;;;;9.63;3.38;;;11.20;99.90;;;;;;5061423;28;20558;-58
2022/11/07 06:13:04;;;;;;;11.52;3.83;;;11.20;99.90;;;;;;5038822;28;20332;-58
2022/11/07 06:15:32;;;;;;;10.55;4.05;;;11.20;99.90;;;;;;5041354;28;20044;-59
2022/11/07 06:18:03;;;;;;;11.25;3.58;;;11.20;99.90;;;;;;5042342;28;20045;-60
2022/11/07 06:20:29;;;;;;;8.50;3.33;;;11.20;99.90;;;;;;5046902;28;20047;-59
2022/11/07 06:22:59;;;;;;;11.55;2.90;;;11.20;99.90;;;;;;5044723;28;20392;-59
2022/11/07 06:25:26;;;;;;;9.77;3.00;;;11.20;99.90;;;;;;5051224;28;20045;-59
2022/11/07 06:27:52;;;;;;;10.80;3.38;;;11.20;99.90;;;;;;5057576;28;20159;-56
2022/11/07 06:30:18;;;;;;;9.68;2.78;;;11.20;99.90;;;;;;5023784;28;20041;-59
2022/11/07 06:32:44;;;;;;;14.65;3.85;;;11.30;99.90;;;;;;5013831;28;20401;-59
2022/11/07 06:35:11;;;;;;;12.50;3.65;;;11.20;99.90;;;;;;5033208;28;20037;-60
2022/11/07 06:37:37;;;;;;;14.30;4.28;;;11.30;99.90;;;;;;5061728;28;20036;-60
2022/11/07 06:40:03;;;;;;;9.60;4.13;;;11.30;99.90;;;;;;5029424;28;20441;-59
2022/11/07 06:42:29;;;;;;;11.55;4.22;;;11.30;99.90;;;;;;5059059;28;20037;-60
2022/11/07 06:44:55;;;;;;;12.77;4.25;;;11.30;99.90;;;;;;5065513;28;20051;-60
2022/11/07 06:47:20;;;;;;;15.55;4.90;;;11.30;99.90;;;;;;5039699;28;20051;-60
2022/11/07 06:49:46;;;;;;;14.40;4.57;;;11.30;99.90;;;;;;5044946;28;20040;-59
2022/11/07 06:52:12;;;;;;;15.82;4.95;;;11.30;99.90;;;;;;5044972;28;20650;-59
2022/11/07 06:54:37;;;;;;;13.27;5.35;;;11.30;99.90;;;;;;5033620;28;20055;-58
2022/11/07 06:57:03;;;;;;;15.73;5.30;;;11.30;99.90;;;;;;5045770;28;20064;-60
2022/11/07 06:59:29;;;;;;;18.00;5.95;;;11.30;99.90;;;;;;5055477;28;20048;-58
2022/11/07 07:01:54;;;;;;;13.70;5.30;;;11.30;99.90;;;;;;5036021;28;20044;-59
2022/11/07 07:04:20;;;;;;;13.25;5.95;;;11.30;99.90;;;;;;5058385;28;20586;-59
2022/11/07 07:06:46;;;;;;;16.33;5.53;;;11.30;99.90;;;;;;5048452;28;20074;-61
2022/11/07 07:09:11;;;;;;;12.55;5.47;;;11.30;99.90;;;;;;5023470;28;20071;-60
2022/11/07 07:11:37;;;;;;;13.63;4.88;;;11.30;99.90;;;;;;5043549;28;20106;-60
2022/11/07 07:14:04;;;;;;;17.02;5.50;;;11.30;99.90;;;;;;5058672;28;20054;-61
2022/11/07 07:16:30;;;;;;;12.90;5.57;;;11.30;99.90;;;;;;5068143;28;20281;-59
2022/11/07 07:18:56;;;;;;;14.25;5.15;;;11.30;99.90;;;;;;5027927;28;20033;-57
2022/11/07 07:21:22;;;;;;;13.07;6.15;;;11.30;99.90;;;;;;5041982;28;20102;-58
2022/11/07 07:23:48;;;;;;;17.65;5.72;;;11.30;99.90;;;;;;5055213;28;20036;-59
2022/11/07 07:26:15;;;;;;;13.40;5.97;;;11.30;99.90;;;;;;5046125;28;20103;-59
2022/11/07 07:28:42;;;;;;;14.57;5.47;;;11.30;99.90;;;;;;5044508;28;20048;-60
2022/11/07 07:31:13;;;;;;;18.77;6.65;;;11.30;99.90;;;;;;5056370;28;20055;-59
2022/11/07 07:33:44;;;;;;;20.55;6.78;;;11.30;99.90;;;;;;5051205;28;20052;-59
2022/11/07 07:36:10;;;;;;;15.05;7.03;;;11.30;99.90;;;;;;5055140;28;20085;-59
2022/11/07 07:38:36;;;;;;;13.63;6.05;;;11.30;99.90;;;;;;5062796;28;20514;-58
2022/11/07 07:41:03;;;;;;;18.10;7.28;;;11.30;99.90;;;;;;5066767;28;20033;-59
2022/11/07 07:43:29;;;;;;;16.45;6.03;;;11.30;99.90;;;;;;5062327;28;20462;-59
2022/11/07 07:45:59;;;;;;;14.85;6.47;;;11.30;99.90;;;;;;5065309;28;20040;-57
2022/11/07 07:48:25;;;;;;;17.95;6.85;;;11.30;99.90;;;;;;5045416;28;20519;-60
2022/11/07 07:50:50;;;;;;;17.38;7.07;;;11.30;99.90;;;;;;5044797;28;20514;-59
2022/11/07 07:53:17;;;;;;;18.92;6.80;;;11.30;99.90;;;;;;5057808;28;20043;-59
2022/11/07 07:55:43;;;;;;;18.27;6.57;;;11.30;99.90;;;;;;5039101;28;20056;-58
2022/11/07 07:58:10;;;;;;;13.90;6.43;;;11.30;99.90;;;;;;5035159;28;20040;-57
2022/11/07 08:00:36;;;;;;;15.27;7.25;;;11.30;99.90;;;;;;5053683;28;20523;-60
2022/11/07 08:03:04;;;;;;;18.60;7.57;;;11.30;99.90;;;;;;5041014;28;20127;-60
2022/11/07 08:05:29;;;;;;;16.52;6.35;;;11.40;99.90;;;;;;5055782;28;20044;-59
2022/11/07 08:07:55;;;;;;;19.15;6.97;;;11.30;99.90;;;;;;5047138;28;20044;-59
2022/11/07 08:10:21;;;;;;;23.98;8.50;;;11.40;99.90;;;;;;5013280;28;20124;-59
2022/11/07 08:12:49;;;;;;;20.23;6.25;;;11.40;99.90;;;;;;5061484;28;20024;-58
2022/11/07 08:15:16;;;;;;;24.27;6.47;;;11.40;99.90;;;;;;5061641;28;20424;-59
2022/11/07 08:17:42;;;;;;;23.92;6.78;;;11.40;99.90;;;;;;5037780;28;20148;-60
2022/11/07 08:20:10;;;;;;;22.60;7.25;;;11.40;99.90;;;;;;5057332;28;22013;-58
2022/11/07 08:22:37;;;;;;;25.35;6.70;;;11.40;99.90;;;;;;5025209;28;20040;-58
2022/11/07 08:25:04;;;;;;;21.33;7.30;;;11.50;99.90;;;;;;5052699;28;20032;-60
2022/11/07 08:27:30;;;;;;;21.63;5.95;;;11.50;99.90;;;;;;5062398;28;20043;-57
2022/11/07 08:29:56;;;;;;;25.95;7.35;;;11.50;99.90;;;;;;5061442;28;20202;-57
2022/11/07 08:32:23;;;;;;;22.27;7.50;;;11.50;99.90;;;;;;5029853;28;20067;-60
2022/11/07 08:34:49;;;;;;;17.02;5.47;;;11.50;99.90;;;;;;5057984;28;20047;-57
2022/11/07 08:37:14;;;;;;;19.80;5.90;;;11.60;99.90;;;;;;5056780;28;20033;-59
2022/11/07 08:39:40;;;;;;;19.02;6.53;;;11.60;99.90;;;;;;5054708;28;20459;-57
2022/11/07 08:42:06;;;;;;;16.50;6.22;;;11.60;99.90;;;;;;5058654;28;20133;-58
2022/11/07 08:44:33;;;;;;;19.80;6.68;;;11.60;99.90;;;;;;5056160;28;20041;-60
2022/11/07 08:46:59;;;;;;;21.70;6.03;;;11.60;99.90;;;;;;5049216;28;20048;-58
2022/11/07 08:49:26;;;;;;;21.98;6.53;;;11.70;99.90;;;;;;5059898;28;20040;-60
2022/11/07 08:51:51;;;;;;;16.77;6.20;;;11.70;99.90;;;;;;5059089;28;20040;-60
2022/11/07 08:54:17;;;;;;;16.08;6.95;;;11.70;99.90;;;;;;5060611;28;20097;-59
2022/11/07 08:56:43;;;;;;;17.42;6.30;;;11.70;99.90;;;;;;5058570;28;20067;-60
2022/11/07 08:59:09;;;;;;;23.65;6.47;;;11.70;99.90;;;;;;5057995;28;20569;-59
2022/11/07 09:01:35;;;;;;;20.77;6.60;;;11.70;99.90;;;;;;5058188;28;20049;-59
2022/11/07 09:04:02;;;;;;;23.98;7.40;;;11.80;99.90;;;;;;5057572;28;20032;-59
2022/11/07 09:06:28;;;;;;;24.13;6.47;;;11.80;99.90;;;;;;5056977;28;20033;-60
2022/11/07 09:08:53;;;;;;;20.63;6.80;;;11.80;99.90;;;;;;5062415;28;20499;-60
2022/11/07 09:11:20;;;;;;;16.70;6.47;;;11.80;99.90;;;;;;5057929;28;20101;-60
2022/11/07 09:13:47;;;;;;;17.65;5.72;;;11.80;99.90;;;;;;5063905;28;20045;-60
2022/11/07 09:16:16;;;;;;;23.63;6.38;;;11.80;99.90;;;;;;5061688;28;20040;-60
2022/11/07 09:18:43;;;;;;;21.30;6.97;;;11.90;99.90;;;;;;5028448;28;20101;-59
2022/11/07 09:21:08;;;;;;;18.83;5.72;;;11.90;99.90;;;;;;5061888;28;20519;-60
2022/11/07 09:23:34;;;;;;;21.75;5.95;;;11.90;99.90;;;;;;5061670;28;20028;-60
2022/11/07 09:26:00;;;;;;;18.17;5.20;;;11.90;99.90;;;;;;5062937;28;20242;-59
2022/11/07 09:28:26;;;;;;;18.15;4.80;;;11.90;99.90;;;;;;5062546;28;20055;-59
2022/11/07 09:30:53;;;;;;;18.58;5.47;;;11.90;99.90;;;;;;5061251;28;20119;-59
2022/11/07 09:33:19;;;;;;;17.55;5.38;;;11.90;99.90;;;;;;5056529;28;20047;-60
2022/11/07 09:35:46;;;;;;;14.85;5.45;;;12.00;99.90;;;;;;5060393;28;20135;-59
2022/11/07 09:38:13;;;;;;;19.90;6.47;;;12.00;99.90;;;;;;5037800;28;20033;-58
2022/11/07 09:40:45;;;;;;;18.23;5.50;;;12.00;99.90;;;;;;5057701;28;20434;-58
2022/11/07 09:43:45;;;;;;;20.33;5.40;;;12.00;99.90;;;;;;5038561;28;20032;-59
2022/11/07 09:46:25;;;;;;;15.30;5.07;;;12.00;99.90;;;;;;5060742;28;20071;-59
2022/11/07 09:49:07;;;;;;;16.02;5.30;;;12.00;99.90;;;;;;5058698;28;20072;-59
2022/11/07 09:51:38;;;;;;;18.45;5.43;;;12.00;99.90;;;;;;5056823;28;20059;-59
2022/11/07 09:54:12;;;;;;;20.10;5.32;;;12.10;99.90;;;;;;5055712;28;20127;-59
2022/11/07 09:56:41;;;;;;;16.83;5.22;;;12.10;99.90;;;;;;5053128;28;20082;-58
2022/11/07 09:59:14;;;;;;;15.15;5.28;;;12.10;99.90;;;;;;5053492;28;20068;-57
2022/11/07 10:01:39;;;;;;;16.73;5.68;;;12.10;99.90;;;;;;5055801;28;20079;-59
2022/11/07 10:04:05;;;;;;;13.77;5.70;;;12.20;99.90;;;;;;5057516;28;20140;-59
2022/11/07 10:06:38;;;;;;;14.18;5.00;;;12.20;99.90;;;;;;5049939;28;20037;-58
2022/11/07 10:09:20;;;;;;;18.98;4.90;;;12.20;99.90;;;;;;5051824;28;20170;-59
2022/11/07 10:12:14;;;;;;;16.98;5.10;;;12.30;99.90;;;;;;5052317;28;20045;-58
2022/11/07 10:14:51;;;;;;;14.68;5.97;;;12.30;99.90;;;;;;5055705;28;20041;-57
2022/11/07 10:17:51;;;;;;;14.60;4.47;;;12.20;99.90;;;;;;5057039;28;20183;-58
2022/11/07 10:20:44;;;;;;;14.65;4.68;;;12.30;99.90;;;;;;5054857;28;20040;-58
2022/11/07 10:23:28;;;;;;;12.98;4.20;;;12.30;99.90;;;;;;5051349;28;20487;-58
2022/11/07 10:26:07;;;;;;;11.38;4.00;;;12.40;99.90;;;;;;5054400;28;20077;-58
2022/11/07 10:28:42;;;;;;;16.30;4.63;;;12.40;99.90;;;;;;5053306;28;20044;-57
2022/11/07 10:31:11;;;;;;;12.98;4.18;;;12.50;99.90;;;;;;5044663;28;20036;-58
2022/11/07 10:33:55;;;;;;;14.10;4.10;;;12.50;99.90;;;;;;5054128;28;20453;-58
2022/11/07 10:36:30;;;;;;;16.17;4.40;;;12.50;99.90;;;;;;5054697;28;20499;-59
2022/11/07 10:38:56;;;;;;;15.15;4.07;;;12.60;99.90;;;;;;5053481;28;20043;-59
2022/11/07 10:41:27;;;;;;;13.00;4.13;;;12.60;99.90;;;;;;5051324;28;20037;-58
2022/11/07 10:44:06;;;;;;;15.75;4.70;;;12.50;99.90;;;;;;5056392;28;20075;-59
2022/11/07 10:46:44;;;;;;;17.40;4.47;;;12.60;99.90;;;;;;5046014;28;20087;-57
2022/11/07 10:49:25;;;;;;;18.30;4.47;;;12.60;99.90;;;;;;5054400;28;20083;-60
2022/11/07 10:51:52;;;;;;;14.10;4.15;;;12.60;99.90;;;;;;5057002;28;20098;-57
2022/11/07 10:54:18;;;;;;;14.23;3.75;;;12.60;99.90;;;;;;5043003;28;20080;-59
2022/11/07 10:56:50;;;;;;;15.70;4.60;;;12.60;99.90;;;;;;5061785;28;20068;-58
2022/11/07 10:59:30;;;;;;;14.80;4.10;;;12.60;99.90;;;;;;5056998;28;20040;-59
2022/11/07 11:01:57;;;;;;;16.10;4.78;;;12.60;99.90;;;;;;5042510;28;20467;-59
2022/11/07 11:04:31;;;;;;;16.00;4.68;;;12.60;99.90;;;;;;5056592;28;20039;-60
2022/11/07 11:07:00;;;;;;;14.25;4.35;;;12.70;99.90;;;;;;5031246;28;20131;-60
2022/11/07 11:09:34;;;;;;;14.98;4.30;;;12.70;99.90;;;;;;5041344;28;20490;-60
2022/11/07 11:12:12;;;;;;;16.80;4.50;;;12.70;99.90;;;;;;5043087;28;20117;-59
2022/11/07 11:14:39;;;;;;;15.25;4.10;;;12.80;99.90;;;;;;5040701;28;20407;-58
2022/11/07 11:17:05;;;;;;;14.27;3.92;;;12.80;99.90;;;;;;5060741;28;20102;-60
2022/11/07 11:19:39;;;;;;;14.07;5.53;;;12.80;99.90;;;;;;5064511;28;20045;-58
2022/11/07 11:22:14;;;;;;;18.35;4.60;;;12.80;99.90;;;;;;5058247;28;20399;-58
2022/11/07 11:24:40;;;;;;;14.30;4.68;;;12.80;99.90;;;;;;5052536;28;20036;-60
2022/11/07 11:27:20;;;;;;;18.45;4.57;;;12.80;99.90;;;;;;5057773;28;20043;-60
2022/11/07 11:30:06;;;;;;;15.55;4.82;;;12.80;99.90;;;;;;5064451;28;20120;-58
2022/11/07 11:32:41;;;;;;;17.30;4.95;;;12.90;99.90;;;;;;5046813;28;20071;-60
2022/11/07 11:35:24;;;;;;;16.52;4.45;;;12.90;99.90;;;;;;5053760;28;20037;-60
2022/11/07 11:37:57;;;;;;;15.98;5.05;;;13.00;99.90;;;;;;5052728;28;20075;-59
2022/11/07 11:40:23;;;;;;;16.88;4.82;;;13.00;99.90;;;;;;5042208;28;20055;-56
2022/11/07 11:42:59;;;;;;;16.50;5.28;;;13.00;99.90;;;;;;5049011;28;20097;-57
2022/11/07 11:46:01;;;;;;;12.18;5.10;;;13.10;99.90;;;;;;5052457;28;20098;-60
2022/11/07 11:48:50;;;;;;;16.10;4.72;;;13.10;99.90;;;;;;5060550;28;20394;-59
2022/11/07 11:51:35;;;;;;;16.52;4.50;;;13.20;99.90;;;;;;5058115;28;20507;-60
2022/11/07 11:54:01;;;;;;;17.02;5.70;;;13.30;99.90;;;;;;5058969;28;20032;-58
2022/11/07 11:56:54;;;;;;;12.82;4.65;;;13.40;99.90;;;;;;5041327;28;20040;-60
2022/11/07 11:59:29;;;;;;;16.05;4.97;;;13.50;99.90;;;;;;5041462;28;20344;-56
2022/11/07 12:02:19;;;;;;;15.13;4.78;;;13.50;99.90;;;;;;5053156;28;20068;-58
2022/11/07 12:05:10;;;;;;;17.92;5.82;;;13.50;99.90;;;;;;5032687;28;20047;-59
2022/11/07 12:07:38;;;;;;;11.82;4.80;;;13.60;99.90;;;;;;5052678;28;20396;-57
2022/11/07 12:10:13;;;;;;;23.33;4.82;;;13.60;99.90;;;;;;5056818;28;20781;-58
2022/11/07 12:12:51;;;;;;;12.63;4.30;;;13.70;99.90;;;;;;5043186;28;20806;-56
2022/11/07 12:15:31;;;;;;;13.13;5.07;;;13.80;99.90;;;;;;5064626;28;20048;-57
2022/11/07 12:18:13;;;;;;;11.38;4.88;;;13.80;99.90;;;;;;5049319;28;20045;-58
2022/11/07 12:21:13;;;;;;;11.05;4.40;;;13.80;99.90;;;;;;5055694;28;20060;-57
2022/11/07 12:24:06;;;;;;;13.80;4.53;;;13.90;99.90;;;;;;5060420;28;20036;-56
2022/11/07 12:26:51;;;;;;;15.32;4.63;;;14.00;99.90;;;;;;5060240;28;20041;-60
2022/11/07 12:29:21;;;;;;;14.43;4.38;;;14.00;99.90;;;;;;5063973;28;20129;-58
2022/11/07 12:32:19;;;;;;;14.13;4.50;;;14.10;99.90;;;;;;5040786;28;20422;-59
2022/11/07 12:35:10;;;;;;;10.90;4.20;;;14.20;99.90;;;;;;5056233;28;20117;-60
2022/11/07 12:37:57;;;;;;;11.10;4.00;;;14.20;99.90;;;;;;5063696;28;20112;-58
2022/11/07 12:40:42;;;;;;;11.07;4.38;;;14.30;99.90;;;;;;5059686;28;20045;-59
2022/11/07 12:43:26;;;;;;;10.27;3.70;;;14.30;99.90;;;;;;5059793;28;20433;-58
2022/11/07 12:46:01;;;;;;;10.13;3.58;;;14.30;99.90;;;;;;5039852;28;20040;-60
2022/11/07 12:48:39;;;;;;;13.68;4.50;;;14.20;99.90;;;;;;5042258;28;20048;-59
2022/11/07 12:51:16;;;;;;;13.38;4.30;;;14.00;99.90;;;;;;5060139;28;20064;-59
2022/11/07 12:53:56;;;;;;;13.45;4.40;;;14.00;99.90;;;;;;5061141;28;20174;-60
2022/11/07 12:56:30;;;;;;;11.32;4.95;;;13.90;99.90;;;;;;5030266;28;20040;-59
2022/11/07 12:58:56;;;;;;;15.27;4.68;;;13.90;99.90;;;;;;5052112;28;20049;-60